Time;durP1;ratioP1;P1;durP2;ratioP2;P2;SDS_P1;SDS_P2;PMS_P1;PMS_P2;Temp;Humidity;BMP_temperature;BMP_pressure;BME280_temperature;BME280_humidity;BME280_pressure;Samples;Min_cycle;Max_cycle;Signal;HPM_P1;HPM_P2
2023/08/19 00:01:04;;;;;;;10.13;7.18;;;18.20;99.90;;;;;;4902862;29;20032;-84
2023/08/19 00:03:33;;;;;;;11.40;7.47;;;18.10;99.90;;;;;;4901556;29;20068;-84
2023/08/19 00:06:07;;;;;;;12.75;7.30;;;18.10;99.90;;;;;;4900739;29;20032;-84
2023/08/19 00:08:33;;;;;;;10.55;6.85;;;18.10;99.90;;;;;;4900804;29;20023;-84
2023/08/19 00:10:58;;;;;;;13.15;6.82;;;18.10;99.90;;;;;;4903566;29;20039;-86
2023/08/19 00:13:24;;;;;;;11.95;7.20;;;18.10;99.90;;;;;;4902670;29;20040;-85
2023/08/19 00:15:50;;;;;;;8.95;6.63;;;18.10;99.90;;;;;;4902626;29;20096;-85
2023/08/19 00:18:16;;;;;;;10.02;6.63;;;18.10;99.90;;;;;;4902608;29;20032;-85
2023/08/19 00:20:42;;;;;;;10.70;5.95;;;18.00;99.90;;;;;;4901372;29;20044;-84
2023/08/19 00:23:08;;;;;;;8.00;5.70;;;18.00;99.90;;;;;;4902491;29;20051;-85
2023/08/19 00:25:33;;;;;;;9.63;5.75;;;18.00;99.90;;;;;;4900948;29;20032;-84
2023/08/19 00:27:59;;;;;;;9.27;4.82;;;17.90;99.90;;;;;;4900376;29;20032;-85
2023/08/19 00:30:25;;;;;;;6.80;5.15;;;18.00;99.90;;;;;;4901822;29;20096;-85
2023/08/19 00:32:51;;;;;;;5.15;4.63;;;17.90;99.90;;;;;;4901271;29;20124;-85
2023/08/19 00:35:17;;;;;;;10.05;4.85;;;17.90;99.90;;;;;;4901828;29;20028;-85
2023/08/19 00:37:42;;;;;;;8.07;5.20;;;17.90;99.90;;;;;;4902239;29;20040;-84
2023/08/19 00:40:14;;;;;;;10.77;5.13;;;17.90;99.90;;;;;;4900163;29;20073;-85
2023/08/19 00:42:40;;;;;;;11.75;6.55;;;17.90;99.90;;;;;;4899717;29;20435;-85
2023/08/19 00:45:07;;;;;;;8.48;4.95;;;17.80;99.90;;;;;;4900131;29;20037;-85
2023/08/19 00:47:32;;;;;;;10.68;4.97;;;17.80;99.90;;;;;;4900812;29;20067;-84
2023/08/19 00:49:58;;;;;;;7.20;4.80;;;17.80;99.90;;;;;;4901738;29;20119;-85
2023/08/19 00:52:24;;;;;;;7.85;4.82;;;17.80;99.90;;;;;;4898840;29;20491;-84
2023/08/19 00:54:50;;;;;;;10.15;4.90;;;17.80;99.90;;;;;;4901664;29;20035;-85
2023/08/19 00:57:16;;;;;;;9.13;4.97;;;17.70;99.90;;;;;;4899560;29;20450;-85
2023/08/19 00:59:42;;;;;;;8.10;5.13;;;17.70;99.90;;;;;;4901714;29;20043;-85
2023/08/19 01:02:08;;;;;;;5.63;4.90;;;17.70;99.90;;;;;;4903019;29;20032;-85
2023/08/19 01:04:34;;;;;;;9.57;4.75;;;17.70;99.90;;;;;;4900474;29;20031;-84
2023/08/19 01:07:11;;;;;;;6.85;5.65;;;17.60;99.90;;;;;;4901278;29;20036;-85
2023/08/19 01:09:58;;;;;;;13.82;5.43;;;17.60;99.90;;;;;;4901432;29;20055;-85
2023/08/19 01:12:30;;;;;;;6.78;4.68;;;17.60;99.90;;;;;;4898548;29;20039;-84
2023/08/19 01:15:05;;;;;;;6.07;4.95;;;17.50;99.90;;;;;;4900347;29;20029;-85
2023/08/19 01:17:33;;;;;;;8.50;4.43;;;17.50;99.90;;;;;;4902969;29;20728;-84
2023/08/19 01:19:59;;;;;;;6.47;4.80;;;17.50;99.90;;;;;;4901576;29;20416;-85
2023/08/19 01:22:45;;;;;;;7.97;4.90;;;17.40;99.90;;;;;;4899400;29;20024;-85
2023/08/19 01:25:11;;;;;;;10.18;5.40;;;17.40;99.90;;;;;;4900340;29;20025;-84
2023/08/19 01:27:37;;;;;;;9.23;5.07;;;17.40;99.90;;;;;;4899768;29;20029;-84
2023/08/19 01:30:04;;;;;;;7.47;5.00;;;17.40;99.90;;;;;;4901964;29;20090;-84
2023/08/19 01:32:30;;;;;;;10.32;5.25;;;17.40;99.90;;;;;;4909578;29;20036;-85
2023/08/19 01:34:56;;;;;;;7.90;4.95;;;17.30;99.90;;;;;;4902582;29;20116;-84
2023/08/19 01:37:28;;;;;;;6.53;5.10;;;17.30;99.90;;;;;;4901812;29;20046;-84
2023/08/19 01:39:56;;;;;;;10.20;5.30;;;17.30;99.90;;;;;;4907943;29;20424;-84
2023/08/19 01:42:23;;;;;;;8.13;4.90;;;17.20;99.90;;;;;;4900130;29;20117;-85
2023/08/19 01:44:48;;;;;;;10.55;5.03;;;17.20;99.90;;;;;;4898557;29;20051;-85
2023/08/19 01:47:16;;;;;;;8.98;4.75;;;17.20;99.90;;;;;;4898834;29;20068;-85
2023/08/19 01:49:45;;;;;;;7.85;5.30;;;17.10;99.90;;;;;;4898782;29;20024;-85
2023/08/19 01:52:12;;;;;;;7.80;4.95;;;17.10;99.90;;;;;;4898075;29;20624;-84
2023/08/19 01:54:38;;;;;;;7.88;5.13;;;17.10;99.90;;;;;;4900446;29;20184;-85
2023/08/19 01:57:05;;;;;;;12.00;6.65;;;17.00;99.90;;;;;;4896834;29;20028;-84
2023/08/19 01:59:30;;;;;;;10.40;5.90;;;17.00;99.90;;;;;;4899476;29;20112;-84
2023/08/19 02:01:56;;;;;;;10.05;5.38;;;17.00;99.90;;;;;;4897598;29;20507;-84
2023/08/19 02:04:21;;;;;;;8.45;5.15;;;16.90;99.90;;;;;;4899585;29;20679;-86
2023/08/19 02:06:47;;;;;;;9.02;5.68;;;16.90;99.90;;;;;;4898947;29;20036;-84
2023/08/19 02:09:12;;;;;;;7.95;5.72;;;16.90;99.90;;;;;;4900095;29;20523;-85
2023/08/19 02:11:38;;;;;;;7.32;5.53;;;16.80;99.90;;;;;;4898246;29;20032;-84
2023/08/19 02:14:04;;;;;;;9.60;5.50;;;16.80;99.90;;;;;;4901298;29;20028;-85
2023/08/19 02:16:30;;;;;;;7.32;5.00;;;16.80;99.90;;;;;;4901760;29;20017;-84
2023/08/19 02:18:58;;;;;;;6.88;5.32;;;16.70;99.90;;;;;;4901967;29;20032;-84
2023/08/19 02:21:24;;;;;;;6.38;5.03;;;16.70;99.90;;;;;;4903232;29;20036;-84
2023/08/19 02:23:49;;;;;;;7.03;5.50;;;16.60;99.90;;;;;;4899325;29;20033;-84
2023/08/19 02:26:15;;;;;;;9.05;5.78;;;16.60;99.90;;;;;;4899213;29;20037;-84
2023/08/19 02:28:41;;;;;;;8.40;5.55;;;16.60;99.90;;;;;;4900397;29;20040;-85
2023/08/19 02:31:06;;;;;;;7.70;5.57;;;16.50;99.90;;;;;;4901049;29;20040;-85
2023/08/19 02:33:32;;;;;;;7.95;5.68;;;16.50;99.90;;;;;;4903275;29;20039;-84
2023/08/19 02:35:57;;;;;;;8.75;5.25;;;16.50;99.90;;;;;;4902115;29;20483;-84
2023/08/19 02:38:23;;;;;;;7.65;5.45;;;16.50;99.90;;;;;;4901132;29;20103;-85
2023/08/19 02:40:52;;;;;;;6.88;5.30;;;16.50;99.90;;;;;;4905656;29;20043;-84
2023/08/19 02:43:18;;;;;;;7.07;5.28;;;16.50;99.90;;;;;;4908245;29;20032;-84
2023/08/19 02:45:45;;;;;;;6.53;5.00;;;16.50;99.90;;;;;;4906380;29;20033;-84
2023/08/19 02:48:11;;;;;;;10.00;5.47;;;16.50;99.90;;;;;;4905372;29;20036;-84
2023/08/19 02:50:37;;;;;;;7.60;5.03;;;16.50;99.90;;;;;;4907764;29;20071;-85
2023/08/19 02:53:02;;;;;;;9.32;5.50;;;16.50;99.90;;;;;;4909216;29;20047;-85
2023/08/19 02:55:28;;;;;;;7.03;5.35;;;16.40;99.90;;;;;;4913785;29;20065;-84
2023/08/19 02:57:53;;;;;;;7.07;5.07;;;16.50;99.90;;;;;;4913121;29;20029;-85
2023/08/19 03:00:19;;;;;;;7.97;6.20;;;16.50;99.90;;;;;;4913702;29;20527;-86
2023/08/19 03:02:48;;;;;;;8.77;5.90;;;16.40;99.90;;;;;;4910467;29;21029;-84
2023/08/19 03:05:14;;;;;;;8.27;5.45;;;16.40;99.90;;;;;;4905829;29;20036;-84
2023/08/19 03:07:40;;;;;;;8.43;5.50;;;16.50;99.90;;;;;;4905935;29;20069;-84
2023/08/19 03:10:06;;;;;;;7.45;5.18;;;16.50;99.90;;;;;;4905830;29;20047;-84
2023/08/19 03:12:33;;;;;;;8.82;5.18;;;16.50;99.90;;;;;;4905782;29;20028;-84
2023/08/19 03:14:58;;;;;;;10.35;5.30;;;16.60;99.90;;;;;;4906062;29;20028;-84
2023/08/19 03:17:24;;;;;;;8.63;5.18;;;16.60;99.90;;;;;;4905296;29;20050;-84
2023/08/19 03:19:50;;;;;;;7.38;5.20;;;16.60;99.90;;;;;;4905077;29;20024;-84
2023/08/19 03:22:16;;;;;;;8.50;5.28;;;16.60;99.90;;;;;;4903552;29;20055;-84
2023/08/19 03:24:41;;;;;;;7.15;5.22;;;16.60;99.90;;;;;;4905876;29;20060;-84
2023/08/19 03:27:07;;;;;;;8.93;5.15;;;16.60;99.90;;;;;;4904378;29;20036;-84
2023/08/19 03:29:32;;;;;;;10.90;5.63;;;16.60;99.90;;;;;;4906378;29;20120;-85
2023/08/19 03:31:58;;;;;;;7.43;5.20;;;16.50;99.90;;;;;;4904607;29;20035;-84
2023/08/19 03:34:25;;;;;;;6.88;4.68;;;16.50;99.90;;;;;;4905485;29;20107;-84
2023/08/19 03:36:50;;;;;;;9.60;5.30;;;16.50;99.90;;;;;;4903761;29;20064;-84
2023/08/19 03:39:16;;;;;;;6.88;4.90;;;16.50;99.90;;;;;;4903744;29;20052;-85
2023/08/19 03:41:41;;;;;;;9.13;4.63;;;16.40;99.90;;;;;;4905857;29;20033;-85
2023/08/19 03:44:07;;;;;;;7.18;4.85;;;16.40;99.90;;;;;;4905925;29;20032;-85
2023/08/19 03:46:33;;;;;;;7.75;5.30;;;16.40;99.90;;;;;;4904002;29;20036;-84
2023/08/19 03:48:58;;;;;;;9.40;4.63;;;16.40;99.90;;;;;;4905200;29;20802;-84
2023/08/19 03:51:24;;;;;;;7.55;4.63;;;16.40;99.90;;;;;;4905804;29;20055;-85
2023/08/19 03:53:49;;;;;;;7.63;4.60;;;16.30;99.90;;;;;;4904024;29;20558;-84
2023/08/19 03:56:15;;;;;;;8.10;4.60;;;16.40;99.90;;;;;;4905748;29;20080;-84
2023/08/19 03:58:40;;;;;;;8.80;4.65;;;16.30;99.90;;;;;;4906532;29;20036;-84
2023/08/19 04:01:09;;;;;;;8.52;4.78;;;16.30;99.90;;;;;;4904067;29;20505;-85
2023/08/19 04:03:34;;;;;;;6.55;4.60;;;16.30;99.90;;;;;;4907093;29;20040;-84
2023/08/19 04:06:00;;;;;;;7.47;4.70;;;16.30;99.90;;;;;;4901722;29;20040;-84
2023/08/19 04:08:26;;;;;;;8.55;4.50;;;16.20;99.90;;;;;;4903318;29;20031;-84
2023/08/19 04:10:52;;;;;;;5.95;4.57;;;16.20;99.90;;;;;;4901487;29;20083;-85
2023/08/19 04:13:18;;;;;;;10.52;4.88;;;16.30;99.90;;;;;;4903486;29;20084;-84
2023/08/19 04:15:43;;;;;;;7.20;4.60;;;16.20;99.90;;;;;;4906952;29;20558;-85
2023/08/19 04:18:10;;;;;;;5.15;4.35;;;16.20;99.90;;;;;;4907489;29;20096;-85
2023/08/19 04:20:39;;;;;;;8.27;4.50;;;16.20;99.90;;;;;;4911626;29;20140;-84
2023/08/19 04:23:05;;;;;;;7.88;4.07;;;16.10;99.90;;;;;;4906166;29;20715;-84
2023/08/19 04:25:31;;;;;;;8.25;4.63;;;16.10;99.90;;;;;;4902462;29;20034;-85
2023/08/19 04:27:57;;;;;;;9.18;3.70;;;16.10;99.90;;;;;;4903385;29;20028;-84
2023/08/19 04:30:22;;;;;;;6.63;4.72;;;16.00;99.90;;;;;;4904472;29;20518;-84
2023/08/19 04:32:48;;;;;;;11.52;4.78;;;16.10;99.90;;;;;;4901197;29;20104;-85
2023/08/19 04:35:13;;;;;;;8.25;4.15;;;16.00;99.90;;;;;;4900764;29;20654;-85
2023/08/19 04:37:39;;;;;;;7.25;4.10;;;16.00;99.90;;;;;;4899797;29;20111;-82
2023/08/19 04:40:09;;;;;;;8.65;4.32;;;16.00;99.90;;;;;;4901824;29;20032;-88
2023/08/19 04:42:35;;;;;;;8.30;4.50;;;16.00;99.90;;;;;;4899888;29;20036;-79
2023/08/19 04:45:01;;;;;;;7.82;4.30;;;16.00;99.90;;;;;;4898366;29;20033;-75
2023/08/19 04:47:26;;;;;;;6.70;4.45;;;16.00;99.90;;;;;;4897568;29;20044;-75
2023/08/19 04:49:52;;;;;;;10.63;4.95;;;16.00;99.90;;;;;;4896870;29;20035;-77
2023/08/19 04:52:17;;;;;;;5.75;4.30;;;16.10;99.90;;;;;;4898625;29;20091;-76
2023/08/19 04:54:43;;;;;;;7.28;5.13;;;16.10;99.90;;;;;;4898547;29;20100;-76
2023/08/19 04:57:08;;;;;;;8.25;4.65;;;16.10;99.90;;;;;;4895596;29;20035;-76
2023/08/19 04:59:34;;;;;;;6.28;4.72;;;16.20;99.90;;;;;;4896226;29;20033;-76
2023/08/19 05:02:00;;;;;;;6.93;4.38;;;16.20;99.90;;;;;;4894303;29;20671;-76
2023/08/19 05:04:27;;;;;;;8.25;4.03;;;16.30;99.90;;;;;;4897243;29;20125;-77
2023/08/19 05:06:52;;;;;;;7.75;3.80;;;16.30;99.90;;;;;;4897848;29;20376;-76
2023/08/19 05:09:18;;;;;;;7.38;4.40;;;16.30;99.90;;;;;;4898785;29;20029;-78
2023/08/19 05:11:43;;;;;;;7.70;4.22;;;16.40;99.90;;;;;;4896681;29;20107;-78
2023/08/19 05:14:09;;;;;;;6.70;3.85;;;16.40;99.90;;;;;;4896274;29;20168;-76
2023/08/19 05:16:34;;;;;;;6.65;4.10;;;16.50;99.90;;;;;;4894984;29;20119;-76
2023/08/19 05:19:13;;;;;;;6.80;3.85;;;16.50;99.90;;;;;;4896800;29;20059;-76
2023/08/19 05:21:39;;;;;;;8.30;4.13;;;16.60;99.90;;;;;;4895870;29;20048;-76
2023/08/19 05:24:07;;;;;;;5.38;3.75;;;16.70;99.90;;;;;;4895225;29;20107;-76
2023/08/19 05:26:32;;;;;;;7.57;4.07;;;16.70;99.90;;;;;;4895355;29;20061;-76
2023/08/19 05:28:59;;;;;;;11.13;4.47;;;16.70;99.90;;;;;;4896176;29;20139;-76
2023/08/19 05:31:24;;;;;;;7.50;3.80;;;16.80;99.90;;;;;;4899256;29;20039;-87
2023/08/19 05:33:50;;;;;;;8.57;4.22;;;16.90;99.90;;;;;;4899037;29;20428;-88
2023/08/19 05:36:16;;;;;;;9.38;4.05;;;16.90;99.90;;;;;;4891035;29;20032;-86
2023/08/19 05:38:41;;;;;;;6.85;3.67;;;17.00;99.90;;;;;;4891146;29;20125;-88
2023/08/19 05:41:07;;;;;;;9.48;3.80;;;17.10;99.90;;;;;;4893560;29;20047;-87
2023/08/19 05:43:32;;;;;;;6.85;4.00;;;17.10;99.90;;;;;;4892700;29;20032;-87
2023/08/19 05:45:58;;;;;;;7.95;3.85;;;17.20;99.90;;;;;;4890177;29;20108;-88
2023/08/19 05:48:24;;;;;;;6.43;3.70;;;17.30;99.90;;;;;;4892885;29;20035;-88
2023/08/19 05:50:49;;;;;;;7.57;3.88;;;17.40;99.90;;;;;;4892230;29;20040;-89
2023/08/19 05:53:15;;;;;;;7.88;3.70;;;17.50;99.90;;;;;;4890773;29;20055;-88
2023/08/19 05:55:40;;;;;;;7.38;4.18;;;17.60;99.90;;;;;;4896896;29;20036;-88
2023/08/19 05:58:06;;;;;;;7.47;4.00;;;17.70;99.90;;;;;;4898030;29;20378;-89
2023/08/19 06:00:31;;;;;;;9.07;3.55;;;17.80;99.90;;;;;;4897205;29;20028;-88
2023/08/19 06:02:57;;;;;;;9.00;3.60;;;18.00;99.90;;;;;;4896702;29;20043;-87
2023/08/19 06:05:23;;;;;;;6.03;3.70;;;18.10;99.90;;;;;;4896601;29;20043;-88
2023/08/19 06:07:48;;;;;;;10.30;3.95;;;18.20;99.90;;;;;;4897708;29;20501;-88
2023/08/19 06:10:14;;;;;;;7.45;3.78;;;18.40;99.90;;;;;;4896302;29;20075;-87
2023/08/19 06:12:39;;;;;;;9.43;4.18;;;18.50;99.90;;;;;;4897617;29;20041;-88
2023/08/19 06:15:05;;;;;;;8.07;3.40;;;18.70;99.90;;;;;;4898860;29;20518;-89
2023/08/19 06:17:31;;;;;;;7.43;4.00;;;18.80;99.90;;;;;;4901173;29;20648;-88
2023/08/19 06:19:57;;;;;;;10.02;3.85;;;19.00;99.90;;;;;;4898845;29;20115;-87
2023/08/19 06:22:22;;;;;;;7.97;3.58;;;19.10;99.90;;;;;;4900101;29;20048;-76
2023/08/19 06:24:48;;;;;;;10.15;3.88;;;19.30;99.90;;;;;;4900364;29;20064;-77
2023/08/19 06:27:13;;;;;;;8.95;4.03;;;19.40;99.90;;;;;;4899021;29;20035;-77
2023/08/19 06:29:40;;;;;;;9.02;3.72;;;19.50;99.90;;;;;;4898915;29;20107;-77
2023/08/19 06:32:06;;;;;;;8.80;3.42;;;19.60;99.90;;;;;;4900612;29;20028;-77
2023/08/19 06:34:32;;;;;;;7.32;3.70;;;19.70;99.90;;;;;;4899954;29;20565;-76
2023/08/19 06:37:01;;;;;;;10.73;3.53;;;19.90;99.90;;;;;;4898740;29;20052;-81
2023/08/19 06:39:27;;;;;;;10.52;3.83;;;20.00;99.90;;;;;;4898288;29;20032;-75
2023/08/19 06:42:01;;;;;;;7.85;3.67;;;20.20;99.90;;;;;;4899502;29;20036;-76
2023/08/19 06:44:29;;;;;;;8.50;4.00;;;20.30;99.90;;;;;;4899658;29;20032;-76
2023/08/19 06:46:56;;;;;;;7.55;3.08;;;20.50;99.90;;;;;;4899883;29;20514;-76
2023/08/19 06:49:22;;;;;;;13.10;3.80;;;20.70;99.90;;;;;;4899994;29;20040;-75
2023/08/19 06:51:48;;;;;;;10.18;3.40;;;20.80;99.90;;;;;;4899829;29;20028;-75
2023/08/19 06:54:14;;;;;;;7.68;3.50;;;21.00;99.90;;;;;;4900488;29;20029;-76
2023/08/19 06:57:00;;;;;;;7.00;3.47;;;21.10;99.90;;;;;;4900399;29;20073;-76
2023/08/19 06:59:39;;;;;;;8.48;3.50;;;21.30;99.90;;;;;;4899633;29;20028;-76
2023/08/19 07:02:06;;;;;;;5.53;3.10;;;21.40;99.90;;;;;;4899292;29;20051;-76
2023/08/19 07:04:32;;;;;;;8.23;3.15;;;21.50;99.90;;;;;;4898071;29;20064;-76
2023/08/19 07:07:01;;;;;;;6.43;3.30;;;21.60;99.90;;;;;;4898738;29;20099;-76
2023/08/19 07:09:27;;;;;;;7.45;3.33;;;21.70;99.90;;;;;;4900224;29;20120;-75
2023/08/19 07:11:54;;;;;;;6.68;3.08;;;21.90;99.90;;;;;;4899429;29;20021;-75
2023/08/19 07:14:21;;;;;;;8.60;3.40;;;21.90;99.90;;;;;;4898715;29;20035;-75
2023/08/19 07:16:49;;;;;;;7.88;3.33;;;22.00;99.90;;;;;;4898330;29;20059;-76
2023/08/19 07:19:19;;;;;;;10.60;3.20;;;22.00;99.90;;;;;;4900556;29;20516;-76
2023/08/19 07:21:46;;;;;;;9.00;4.03;;;22.00;99.90;;;;;;4899689;29;20046;-76
2023/08/19 07:24:12;;;;;;;7.80;2.90;;;22.10;99.90;;;;;;4900295;29;20076;-78
2023/08/19 07:26:41;;;;;;;9.10;3.40;;;22.10;99.90;;;;;;4898751;29;20031;-77
2023/08/19 07:29:07;;;;;;;8.55;3.38;;;22.20;99.90;;;;;;4899533;29;20025;-76
2023/08/19 07:31:33;;;;;;;8.68;4.32;;;22.30;99.90;;;;;;4897922;29;20060;-77
2023/08/19 07:33:59;;;;;;;7.25;3.78;;;22.40;99.90;;;;;;4894288;29;20167;-76
2023/08/19 07:36:26;;;;;;;6.93;3.65;;;22.50;99.90;;;;;;4893186;29;20024;-76
2023/08/19 07:38:52;;;;;;;7.63;3.17;;;22.60;99.90;;;;;;4891711;29;20546;-78
2023/08/19 07:41:19;;;;;;;5.22;3.03;;;22.60;99.90;;;;;;4882340;29;20087;-77
2023/08/19 07:43:45;;;;;;;7.35;3.58;;;22.70;99.90;;;;;;4892495;29;20039;-77
2023/08/19 07:46:14;;;;;;;9.60;3.55;;;22.80;99.90;;;;;;4893863;29;20028;-77
2023/08/19 07:48:57;;;;;;;6.90;3.10;;;22.90;99.90;;;;;;4884721;29;20028;-77
2023/08/19 07:51:23;;;;;;;7.13;3.58;;;23.10;99.90;;;;;;4887994;29;20584;-77
2023/08/19 07:53:49;;;;;;;6.72;3.40;;;23.20;99.90;;;;;;4888664;29;20041;-76
2023/08/19 07:56:16;;;;;;;7.10;3.20;;;23.20;99.90;;;;;;4891538;29;20040;-77
2023/08/19 07:58:42;;;;;;;8.88;4.22;;;23.20;99.90;;;;;;4892178;29;20491;-77
2023/08/19 08:01:10;;;;;;;7.13;3.20;;;23.30;99.90;;;;;;4891453;29;20091;-77
2023/08/19 08:03:37;;;;;;;12.73;3.83;;;23.40;99.90;;;;;;4888190;29;20036;-76
2023/08/19 08:06:03;;;;;;;10.02;3.70;;;23.40;99.90;;;;;;4888068;29;20032;-76
2023/08/19 08:08:29;;;;;;;9.57;3.50;;;23.50;99.90;;;;;;4892038;29;20044;-77
2023/08/19 08:10:57;;;;;;;15.02;3.92;;;23.60;99.90;;;;;;4891762;29;20033;-78
2023/08/19 08:13:23;;;;;;;11.50;3.78;;;23.70;99.90;;;;;;4887177;29;20196;-77
2023/08/19 08:15:48;;;;;;;12.70;4.72;;;23.70;99.90;;;;;;4891337;29;20427;-77
2023/08/19 08:18:14;;;;;;;8.60;3.72;;;23.90;99.90;;;;;;4890066;29;20028;-78
2023/08/19 08:20:40;;;;;;;9.80;4.60;;;24.00;99.90;;;;;;4891359;29;20041;-77
2023/08/19 08:23:06;;;;;;;16.38;6.50;;;24.10;99.90;;;;;;4892554;29;20140;-77
2023/08/19 08:25:34;;;;;;;10.93;3.92;;;24.20;99.90;;;;;;4887854;29;20048;-78
2023/08/19 08:28:00;;;;;;;9.75;3.22;;;24.30;99.90;;;;;;4890087;29;20059;-77
2023/08/19 08:30:37;;;;;;;7.60;3.47;;;24.40;99.90;;;;;;4889864;29;20033;-77
2023/08/19 08:33:06;;;;;;;6.70;3.15;;;24.60;99.90;;;;;;4893228;29;20027;-78
2023/08/19 08:35:32;;;;;;;6.40;2.88;;;24.70;99.90;;;;;;4888809;29;20028;-78
2023/08/19 08:37:58;;;;;;;8.95;3.28;;;24.80;99.90;;;;;;4890409;29;20409;-77
2023/08/19 08:40:23;;;;;;;11.15;3.45;;;24.80;99.90;;;;;;4889043;29;20040;-77
2023/08/19 08:42:51;;;;;;;6.60;3.20;;;25.00;99.90;;;;;;4888306;29;20032;-77
2023/08/19 08:45:19;;;;;;;14.93;3.92;;;25.10;99.90;;;;;;4886411;29;20121;-78
2023/08/19 08:47:45;;;;;;;8.40;3.22;;;25.20;99.90;;;;;;4890541;29;21496;-77
2023/08/19 08:50:11;;;;;;;4.47;2.97;;;25.30;99.90;;;;;;4890129;29;20040;-77
2023/08/19 08:52:40;;;;;;;7.65;3.17;;;25.50;99.90;;;;;;4892971;29;20036;-77
2023/08/19 08:55:06;;;;;;;5.32;3.30;;;25.50;99.90;;;;;;4893939;29;20091;-77
2023/08/19 08:57:32;;;;;;;7.55;3.00;;;25.70;99.90;;;;;;4889447;29;20631;-77
2023/08/19 08:59:58;;;;;;;6.28;2.97;;;25.80;99.90;;;;;;4896787;29;20121;-77
2023/08/19 09:02:25;;;;;;;7.50;3.13;;;25.90;99.90;;;;;;4895834;29;20037;-77
2023/08/19 09:04:51;;;;;;;8.15;4.03;;;26.10;99.90;;;;;;4896224;29;20032;-77
2023/08/19 09:07:38;;;;;;;7.65;3.10;;;26.20;99.90;;;;;;4895142;29;20118;-77
2023/08/19 09:10:13;;;;;;;6.93;2.80;;;26.40;99.90;;;;;;4895159;29;20028;-76
2023/08/19 09:12:42;;;;;;;5.00;2.85;;;26.60;99.90;;;;;;4895999;29;20031;-77
2023/08/19 09:15:11;;;;;;;7.22;2.97;;;26.70;99.90;;;;;;4897838;29;20028;-77
2023/08/19 09:17:40;;;;;;;6.85;2.80;;;26.90;99.90;;;;;;4897414;29;20083;-78
2023/08/19 09:20:17;;;;;;;8.02;2.95;;;27.10;99.90;;;;;;4898346;29;20040;-90
2023/08/19 09:22:44;;;;;;;8.52;2.70;;;27.30;99.90;;;;;;4895682;29;20070;-79
2023/08/19 09:25:15;;;;;;;8.18;2.53;;;27.50;99.90;;;;;;4896828;29;20036;-79
2023/08/19 09:27:41;;;;;;;5.05;2.83;;;27.70;99.90;;;;;;4894846;29;20024;-78
2023/08/19 09:30:07;;;;;;;8.70;2.72;;;27.90;99.90;;;;;;4896637;29;20480;-78
2023/08/19 09:32:35;;;;;;;8.40;2.95;;;28.20;99.90;;;;;;4896605;29;20108;-78
2023/08/19 09:35:05;;;;;;;7.53;2.88;;;28.50;99.90;;;;;;4896462;29;20032;-76
2023/08/19 09:37:43;;;;;;;8.05;2.88;;;28.70;99.90;;;;;;4891047;29;20043;-81
2023/08/19 09:40:18;;;;;;;6.68;2.63;;;29.00;99.90;;;;;;4893684;29;20060;-78
2023/08/19 09:42:49;;;;;;;4.85;2.70;;;29.30;99.90;;;;;;4895459;29;20035;-77
2023/08/19 09:45:20;;;;;;;5.28;2.67;;;29.50;99.90;;;;;;4892319;29;20550;-78
2023/08/19 09:47:49;;;;;;;7.38;2.65;;;29.80;99.90;;;;;;4896220;29;20032;-76
2023/08/19 09:50:17;;;;;;;6.65;3.15;;;30.00;99.90;;;;;;4899491;29;20039;-77
2023/08/19 09:52:53;;;;;;;5.65;2.42;;;30.10;99.90;;;;;;4897439;29;20021;-78
2023/08/19 09:55:26;;;;;;;5.68;2.70;;;30.30;99.90;;;;;;4899364;29;20448;-78
2023/08/19 15:07:55;;;;;;;9.90;2.70;;;31.40;81.10;;;;;;5052598;23;20151;-78
2023/08/19 15:10:20;;;;;;;7.22;2.33;;;31.40;80.20;;;;;;4899465;29;20032;-79
2023/08/19 15:12:49;;;;;;;8.45;2.40;;;31.40;82.60;;;;;;4898507;29;21444;-77
2023/08/19 15:15:17;;;;;;;7.78;2.55;;;31.30;82.50;;;;;;4899612;29;20035;-77
2023/08/19 15:17:43;;;;;;;11.40;2.92;;;31.20;83.40;;;;;;4899226;29;20036;-77
2023/08/19 15:20:09;;;;;;;11.68;2.85;;;31.10;83.80;;;;;;4898657;29;20123;-78
2023/08/19 15:22:35;;;;;;;9.05;2.78;;;30.80;84.80;;;;;;4897775;29;20440;-77
2023/08/19 15:25:00;;;;;;;5.88;2.42;;;30.80;83.10;;;;;;4897750;29;20028;-78
2023/08/19 15:27:26;;;;;;;6.07;2.35;;;30.70;85.60;;;;;;4896860;29;20040;-77
2023/08/19 15:29:51;;;;;;;7.13;2.53;;;30.60;85.00;;;;;;4898531;29;20035;-78
2023/08/19 15:32:18;;;;;;;8.27;2.60;;;30.50;87.20;;;;;;4900374;29;20024;-78
2023/08/19 15:34:46;;;;;;;9.38;2.70;;;30.50;86.30;;;;;;4898839;29;20036;-83
2023/08/19 15:37:14;;;;;;;21.42;13.10;;;30.40;86.50;;;;;;4969891;23;20052;-77
2023/08/19 15:39:45;;;;;;;108.47;96.55;;;30.40;88.00;;;;;;4923542;29;20062;-77
2023/08/19 15:42:14;;;;;;;14.30;5.95;;;30.50;85.60;;;;;;4924172;29;20027;-77
2023/08/19 15:44:42;;;;;;;11.10;3.33;;;30.50;87.80;;;;;;4923669;29;20097;-77
2023/08/19 15:47:08;;;;;;;8.82;3.15;;;30.50;87.80;;;;;;4924648;29;20050;-77
2023/08/19 16:26:33;;;;;;;13.18;4.85;;;30.40;88.90;;;;;;5198780;23;20223;-76
2023/08/19 16:28:59;;;;;;;21.58;11.88;;;30.30;90.00;;;;;;4895149;29;20607;-75
2023/08/19 16:31:24;;;;;;;10.43;3.50;;;30.40;88.50;;;;;;4895800;29;20492;-75
2023/08/19 16:33:50;;;;;;;20.83;9.60;;;30.40;89.90;;;;;;4896250;29;20407;-75
2023/08/19 16:54:13;;;;;;;29.38;16.10;;;29.70;92.80;;;;;;5371476;23;20456;-75
2023/08/19 16:56:38;;;;;;;430.30;343.48;;;29.50;93.00;;;;;;4895864;29;20088;-75
2023/08/19 16:59:04;;;;;;;602.35;530.78;;;29.40;92.90;;;;;;4894743;29;20040;-75
2023/08/19 17:01:30;;;;;;;58.63;33.50;;;29.30;93.10;;;;;;4894752;29;20040;-74
2023/08/19 17:03:55;;;;;;;46.30;28.38;;;29.20;92.80;;;;;;4894639;29;20040;-76
2023/08/19 17:06:21;;;;;;;22.45;7.88;;;29.20;93.90;;;;;;4894257;29;20043;-75
2023/08/19 17:08:49;;;;;;;10.90;4.90;;;29.10;94.40;;;;;;4894096;29;21523;-75
2023/08/19 17:11:15;;;;;;;9.25;3.45;;;29.00;94.60;;;;;;4893002;29;20079;-75
2023/08/19 17:13:40;;;;;;;10.48;3.55;;;28.90;94.50;;;;;;4896333;29;20147;-76
2023/08/19 17:16:06;;;;;;;9.25;3.70;;;28.80;94.30;;;;;;4894938;29;20113;-73
2023/08/19 17:24:11;;;;;;;14.57;6.28;;;28.60;95.30;;;;;;4923537;23;20416;-75
2023/08/19 17:26:38;;;;;;;17.48;10.27;;;28.50;95.80;;;;;;4895935;29;20126;-75
2023/08/19 17:29:03;;;;;;;11.70;3.92;;;28.50;96.30;;;;;;4880173;29;20043;-75
2023/08/19 17:31:29;;;;;;;9.35;3.78;;;28.40;96.70;;;;;;4878452;29;20033;-75
2023/08/19 17:33:54;;;;;;;9.50;4.75;;;28.40;97.10;;;;;;4880195;29;20032;-75
2023/08/19 17:36:20;;;;;;;11.85;3.40;;;28.30;97.70;;;;;;4878640;29;20052;-75
2023/08/19 17:38:45;;;;;;;9.65;3.53;;;28.20;97.70;;;;;;4879642;29;20124;-75
2023/08/19 17:41:11;;;;;;;5.43;3.25;;;28.10;98.30;;;;;;4881280;29;20492;-75
2023/08/19 17:43:36;;;;;;;7.45;3.13;;;28.00;98.30;;;;;;4880410;29;20103;-75
2023/08/19 17:46:03;;;;;;;7.20;3.05;;;27.90;98.50;;;;;;4882708;29;20078;-75
2023/08/19 17:48:30;;;;;;;5.82;3.15;;;27.80;98.70;;;;;;4880839;29;20146;-75
2023/08/19 17:50:56;;;;;;;7.95;3.15;;;27.70;99.20;;;;;;4881166;29;20043;-75
2023/08/19 17:53:21;;;;;;;9.65;3.65;;;27.60;99.50;;;;;;4881677;29;20033;-75
2023/08/19 17:55:47;;;;;;;12.93;3.60;;;27.50;99.90;;;;;;4882558;29;20025;-75
2023/08/19 17:58:12;;;;;;;16.95;5.47;;;27.40;99.90;;;;;;4881677;29;20033;-75
2023/08/19 18:00:40;;;;;;;9.35;3.42;;;27.30;99.60;;;;;;4880053;29;20024;-74
2023/08/19 18:03:05;;;;;;;11.50;3.67;;;27.20;99.90;;;;;;4880544;29;20044;-75
2023/08/19 18:05:31;;;;;;;11.45;3.92;;;27.10;99.90;;;;;;4879287;29;20037;-75
2023/08/19 18:07:56;;;;;;;9.77;3.70;;;27.00;99.90;;;;;;4878271;29;20032;-75
2023/08/19 18:10:26;;;;;;;9.88;3.60;;;26.90;99.90;;;;;;4880957;29;20361;-75
2023/08/19 18:12:53;;;;;;;10.77;3.55;;;26.80;99.90;;;;;;4882179;29;20037;-75
2023/08/19 18:15:18;;;;;;;8.07;4.03;;;26.70;99.90;;;;;;4881892;29;20775;-75
2023/08/19 18:17:44;;;;;;;7.63;3.63;;;26.60;99.90;;;;;;4881374;29;20036;-75
2023/08/19 18:20:10;;;;;;;10.02;4.25;;;26.40;99.90;;;;;;4880828;29;20083;-75
2023/08/19 18:22:35;;;;;;;7.35;4.07;;;26.30;99.90;;;;;;4882325;29;21140;-75
2023/08/19 18:25:01;;;;;;;8.40;3.90;;;26.20;99.90;;;;;;4882359;29;20408;-75
2023/08/19 18:27:26;;;;;;;9.88;4.70;;;26.10;99.90;;;;;;4882593;29;20037;-74
2023/08/19 18:29:52;;;;;;;8.80;4.20;;;26.00;99.90;;;;;;4881945;29;20105;-75
2023/08/19 18:32:17;;;;;;;11.32;4.82;;;25.90;99.90;;;;;;4882775;29;20104;-75
2023/08/19 18:34:43;;;;;;;13.95;6.03;;;25.80;99.90;;;;;;4882482;29;20114;-74
2023/08/19 18:37:08;;;;;;;12.55;7.38;;;25.70;99.90;;;;;;4881511;29;20028;-75
2023/08/19 18:39:34;;;;;;;14.00;9.25;;;25.60;99.90;;;;;;4880770;29;20056;-75
2023/08/19 18:41:59;;;;;;;17.55;10.88;;;25.50;99.90;;;;;;4882290;29;20612;-75
2023/08/19 18:44:25;;;;;;;16.55;10.88;;;25.40;99.90;;;;;;4882903;29;21503;-74
2023/08/19 18:46:50;;;;;;;17.63;9.63;;;25.30;99.90;;;;;;4879814;29;20456;-74
2023/08/19 18:49:16;;;;;;;15.35;9.35;;;25.30;99.90;;;;;;4879065;29;20037;-75
2023/08/19 18:51:43;;;;;;;15.02;7.55;;;25.20;99.90;;;;;;4882113;29;20039;-74